Time;durP1;ratioP1;P1;durP2;ratioP2;P2;SDS_P1;SDS_P2;PMS_P1;PMS_P2;Temp;Humidity;BMP_temperature;BMP_pressure;BME280_temperature;BME280_humidity;BME280_pressure;Samples;Min_cycle;Max_cycle;Signal;HPM_P1;HPM_P2
2022/05/08 00:01:46;;;;;;;5.47;4.17;;;;;;;20.82;44.87;99671.06;4125647;28;20238;-68
2022/05/08 00:03:48;;;;;;;5.03;4.20;;;;;;;21.04;44.42;99676.81;4125162;28;20260;-68
2022/05/08 00:05:49;;;;;;;6.60;4.23;;;;;;;21.03;44.71;99690.56;4127256;28;20289;-68
2022/05/08 00:07:51;;;;;;;6.67;4.50;;;;;;;20.37;46.13;99690.34;4130362;28;20598;-68
2022/05/08 00:09:53;;;;;;;6.10;4.53;;;;;;;20.05;46.61;99693.13;4127369;28;20230;-67
2022/05/08 00:11:54;;;;;;;6.83;4.47;;;;;;;20.57;45.40;99693.63;4127668;28;20756;-68
2022/05/08 00:13:56;;;;;;;5.07;4.10;;;;;;;19.99;46.28;99696.72;4131311;28;20261;-68
2022/05/08 00:15:59;;;;;;;4.67;3.80;;;;;;;19.97;46.28;99696.94;4133869;28;20230;-68
2022/05/08 00:18:00;;;;;;;5.37;4.03;;;;;;;20.74;45.06;99690.31;4129674;28;20289;-68
2022/05/08 00:20:05;;;;;;;5.83;3.90;;;;;;;20.30;45.76;99703.06;4130333;28;20303;-68
2022/05/08 00:22:07;;;;;;;4.87;3.77;;;;;;;20.31;45.60;99691.22;4128460;28;20288;-67
2022/05/08 00:24:29;;;;;;;4.70;3.87;;;;;;;20.39;45.70;99699.03;4121393;28;20262;-68
2022/05/08 00:26:30;;;;;;;5.13;3.87;;;;;;;20.31;45.81;99702.03;4124427;28;20237;-68
2022/05/08 00:28:32;;;;;;;10.00;4.10;;;;;;;20.44;45.34;99704.56;4130653;28;20495;-68
2022/05/08 00:30:34;;;;;;;5.60;4.33;;;;;;;20.27;45.59;99706.22;4133400;28;20292;-68
2022/05/08 00:32:35;;;;;;;5.47;4.30;;;;;;;20.44;45.62;99704.56;4130012;28;20230;-68
2022/05/08 00:34:37;;;;;;;6.73;4.23;;;;;;;20.15;46.03;99698.00;4136700;28;20927;-68
2022/05/08 00:36:39;;;;;;;5.17;4.50;;;;;;;20.35;45.98;99692.44;4133273;28;20439;-68
2022/05/08 00:38:40;;;;;;;5.60;4.53;;;;;;;19.98;46.84;99706.69;4128443;28;20233;-68
2022/05/08 00:40:42;;;;;;;5.30;4.40;;;;;;;20.71;44.93;99693.44;4123021;28;20233;-67
2022/05/08 00:42:44;;;;;;;7.97;4.10;;;;;;;20.48;45.55;99705.75;4129475;28;20238;-68
2022/05/08 00:44:46;;;;;;;7.03;4.10;;;;;;;20.01;46.57;99703.53;4128688;28;20257;-68
2022/05/08 00:46:48;;;;;;;6.43;4.57;;;;;;;19.60;47.90;99701.41;4128245;28;20703;-68
2022/05/08 00:48:50;;;;;;;6.03;4.57;;;;;;;20.64;45.76;99692.72;4119212;28;20240;-68
2022/05/08 00:50:52;;;;;;;6.27;4.43;;;;;;;20.97;44.87;99701.25;4130049;28;20787;-68
2022/05/08 00:52:54;;;;;;;5.60;4.80;;;;;;;20.58;45.72;99714.19;4124435;28;20229;-68
2022/05/08 00:54:56;;;;;;;6.00;5.23;;;;;;;20.59;45.29;99707.72;4129071;28;20292;-68
2022/05/08 00:56:58;;;;;;;5.77;4.83;;;;;;;20.79;44.84;99707.47;4128023;28;20288;-68
2022/05/08 00:59:00;;;;;;;6.90;5.07;;;;;;;20.79;45.34;99715.56;4131973;28;20741;-67
2022/05/08 01:01:03;;;;;;;5.47;4.90;;;;;;;20.65;45.61;99719.50;4128939;28;20242;-68
2022/05/08 01:03:05;;;;;;;6.60;5.10;;;;;;;20.81;45.40;99709.94;4126027;28;20245;-68
2022/05/08 01:05:08;;;;;;;7.27;5.30;;;;;;;20.50;46.27;99717.19;4128842;28;20234;-68
2022/05/08 01:07:11;;;;;;;5.37;4.87;;;;;;;20.47;46.08;99717.63;4118178;28;20230;-68
2022/05/08 01:09:13;;;;;;;7.80;5.57;;;;;;;20.69;45.76;99709.06;4121316;28;20257;-68
2022/05/08 01:11:14;;;;;;;6.80;5.60;;;;;;;20.24;46.58;99710.16;4130069;28;20240;-67
2022/05/08 01:13:16;;;;;;;5.90;5.30;;;;;;;20.16;46.82;99711.28;4125191;28;20312;-68
2022/05/08 01:15:19;;;;;;;8.43;5.70;;;;;;;20.32;46.58;99717.19;4128012;28;20230;-68
2022/05/08 01:17:20;;;;;;;7.30;5.37;;;;;;;20.11;46.98;99715.69;4133170;28;20711;-68
2022/05/08 01:19:22;;;;;;;9.20;5.90;;;;;;;20.16;46.26;99711.28;4123673;28;20236;-68
2022/05/08 01:21:41;;;;;;;7.90;5.60;;;;;;;20.27;46.49;99717.03;4125585;28;20666;-68
2022/05/08 01:23:45;;;;;;;7.50;5.43;;;;;;;20.89;44.81;99712.34;4114542;28;20230;-68
2022/05/08 01:25:55;;;;;;;10.27;5.43;;;;;;;20.41;46.02;99713.94;4124050;28;20620;-68
2022/05/08 01:27:56;;;;;;;9.23;5.97;;;;;;;20.05;46.25;99717.41;4113221;28;20262;-68
2022/05/08 01:29:58;;;;;;;7.23;5.23;;;;;;;19.88;46.86;99709.06;4130792;28;20256;-68
2022/05/08 01:32:01;;;;;;;9.10;5.70;;;;;;;19.92;46.90;99704.03;4122530;28;20605;-68
2022/05/08 01:34:02;;;;;;;9.17;5.67;;;;;;;20.12;46.22;99712.78;4112119;28;20230;-68
2022/05/08 01:36:05;;;;;;;6.83;5.67;;;;;;;20.22;46.16;99710.38;4130769;28;20229;-67
2022/05/08 01:38:07;;;;;;;6.70;5.57;;;;;;;19.99;46.96;99712.91;4131675;28;20233;-68
2022/05/08 01:40:09;;;;;;;6.87;6.10;;;;;;;19.96;46.55;99711.47;4144224;28;20299;-68
2022/05/08 01:42:11;;;;;;;7.47;6.70;;;;;;;19.62;47.23;99707.41;4130740;28;20311;-68
2022/05/08 01:44:13;;;;;;;8.60;7.13;;;;;;;19.87;46.57;99708.22;4126583;28;20234;-68
2022/05/08 01:46:15;;;;;;;9.70;6.93;;;;;;;19.57;47.12;99710.78;4128048;28;20237;-68
2022/05/08 01:48:22;;;;;;;6.93;6.10;;;;;;;19.72;47.61;99705.03;4123195;28;20336;-67
2022/05/08 01:50:24;;;;;;;9.60;7.00;;;;;;;19.96;46.47;99699.84;4115144;28;20233;-68
2022/05/08 01:52:26;;;;;;;7.60;6.67;;;;;;;20.15;46.04;99703.41;4117559;28;20334;-67
2022/05/08 01:54:28;;;;;;;8.93;6.70;;;;;;;20.04;46.36;99702.25;4135186;28;20299;-68
2022/05/08 01:56:29;;;;;;;7.97;6.43;;;;;;;20.20;46.16;99709.78;4127127;28;20242;-68
2022/05/08 01:58:31;;;;;;;9.13;7.03;;;;;;;20.39;45.72;99704.44;4128273;28;20233;-68
2022/05/08 02:00:33;;;;;;;12.93;7.13;;;;;;;19.45;47.70;99712.47;4131181;28;20241;-68
2022/05/08 02:02:35;;;;;;;7.63;6.87;;;;;;;18.64;49.26;99714.75;4129064;28;20866;-68
2022/05/08 02:04:37;;;;;;;8.40;6.50;;;;;;;19.54;48.03;99702.25;4128085;28;20242;-68
2022/05/08 02:06:39;;;;;;;8.13;7.30;;;;;;;19.20;48.77;99701.66;4136215;28;20299;-68
2022/05/08 02:08:40;;;;;;;7.70;6.97;;;;;;;19.43;48.27;99704.59;4130691;28;20233;-68
2022/05/08 02:10:42;;;;;;;10.30;7.20;;;;;;;19.33;48.89;99707.81;4127430;28;20246;-68
2022/05/08 02:12:45;;;;;;;7.33;6.50;;;;;;;19.37;48.35;99697.41;4130881;28;20242;-68
2022/05/08 02:14:47;;;;;;;8.73;6.90;;;;;;;18.97;49.25;99700.34;4134393;28;20234;-68
2022/05/08 02:16:48;;;;;;;8.43;7.37;;;;;;;19.01;49.24;99708.81;4133966;28;20233;-68
2022/05/08 02:18:51;;;;;;;9.67;7.30;;;;;;;19.08;48.90;99696.13;4129068;28;20243;-68
2022/05/08 02:20:52;;;;;;;11.17;7.23;;;;;;;18.49;50.22;99695.34;4136391;28;20248;-68
2022/05/08 02:22:55;;;;;;;8.53;6.73;;;;;;;18.85;49.73;99691.31;4130016;28;20234;-68
2022/05/08 02:24:56;;;;;;;7.63;6.83;;;;;;;19.23;48.74;99691.25;4131827;28;20245;-68
2022/05/08 02:26:58;;;;;;;8.43;7.10;;;;;;;19.29;48.33;99689.59;4128137;28;20333;-67
2022/05/08 02:28:59;;;;;;;9.03;7.57;;;;;;;18.93;49.28;99704.50;4124681;28;20319;-67
2022/05/08 02:31:01;;;;;;;9.30;7.00;;;;;;;19.05;48.56;99696.56;4129231;28;20229;-68
2022/05/08 02:33:03;;;;;;;10.40;7.00;;;;;;;19.68;47.23;99690.34;4127079;28;20242;-68
2022/05/08 02:35:06;;;;;;;8.00;7.20;;;;;;;19.48;48.68;99709.34;4126505;28;20238;-68
2022/05/08 02:37:08;;;;;;;8.47;7.30;;;;;;;19.70;47.27;99704.44;4126011;28;20226;-68
2022/05/08 02:39:10;;;;;;;8.97;7.10;;;;;;;19.20;48.19;99701.66;4122160;28;21726;-68
2022/05/08 02:41:12;;;;;;;8.93;6.60;;;;;;;18.83;48.87;99713.06;4108759;28;20243;-68
2022/05/08 02:43:14;;;;;;;8.37;7.13;;;;;;;18.95;49.12;99713.22;4110321;28;20292;-68
2022/05/08 02:45:16;;;;;;;8.33;7.27;;;;;;;18.57;49.85;99714.78;4117408;28;20234;-67
2022/05/08 02:47:18;;;;;;;9.87;7.87;;;;;;;18.83;49.58;99712.22;4123390;28;20238;-68
2022/05/08 02:49:20;;;;;;;8.07;6.97;;;;;;;18.73;49.35;99713.50;4128176;28;20237;-67
2022/05/08 02:51:21;;;;;;;9.20;7.40;;;;;;;18.71;49.92;99722.81;4119313;28;20245;-68
2022/05/08 02:53:23;;;;;;;8.27;7.40;;;;;;;17.94;51.41;99723.38;4120165;28;20229;-68
2022/05/08 03:00:10;;;;;;;11.23;7.53;;;;;;;18.33;50.61;99696.66;4114472;28;20253;-68
2022/05/08 03:02:12;;;;;;;9.67;7.50;;;;;;;18.58;49.89;99696.78;4125109;28;20757;-67
2022/05/08 03:04:14;;;;;;;9.40;7.57;;;;;;;18.23;50.65;99705.16;4129418;28;20284;-68
2022/05/08 03:06:15;;;;;;;8.93;7.70;;;;;;;18.88;49.50;99715.94;4128741;28;20614;-68
2022/05/08 03:08:19;;;;;;;9.40;8.20;;;;;;;19.17;48.86;99707.47;4127545;28;20687;-68
2022/05/08 03:10:21;;;;;;;8.20;7.30;;;;;;;18.92;49.16;99721.72;4135493;28;20225;-68
2022/05/08 03:12:23;;;;;;;10.33;7.43;;;;;;;18.09;50.80;99733.97;4135079;28;20810;-67
2022/05/08 03:14:25;;;;;;;9.47;7.43;;;;;;;17.99;51.33;99733.53;4125928;28;20802;-68
2022/05/08 03:16:29;;;;;;;8.17;7.13;;;;;;;18.45;50.47;99723.75;4127030;28;20279;-68
2022/05/08 03:18:32;;;;;;;9.67;6.93;;;;;;;18.08;50.75;99729.59;4128661;28;20233;-68
2022/05/08 03:20:34;;;;;;;8.77;7.83;;;;;;;18.74;49.63;99715.13;4129473;28;20276;-68
2022/05/08 03:22:35;;;;;;;8.43;7.03;;;;;;;18.74;49.45;99717.81;4128229;28;20229;-67
2022/05/08 03:24:37;;;;;;;8.00;7.20;;;;;;;18.21;50.65;99732.28;4131644;28;20229;-67
2022/05/08 03:26:39;;;;;;;8.73;7.80;;;;;;;17.45;51.87;99738.06;4131843;28;20651;-67
2022/05/08 03:28:42;;;;;;;8.50;7.57;;;;;;;18.33;50.91;99732.47;4128813;28;20848;-68
2022/05/08 03:30:44;;;;;;;9.77;8.07;;;;;;;18.63;49.51;99734.66;4131193;28;20605;-68
2022/05/08 03:32:47;;;;;;;10.13;7.77;;;;;;;18.06;50.63;99752.34;4127017;28;20242;-68
2022/05/08 03:34:49;;;;;;;9.67;7.67;;;;;;;17.75;51.53;99749.25;4126427;28;20953;-67
2022/05/08 03:36:51;;;;;;;10.67;7.37;;;;;;;17.91;51.04;99745.31;4126376;28;20234;-68
2022/05/08 03:38:52;;;;;;;8.77;7.57;;;;;;;18.21;50.22;99739.53;4129538;28;20241;-67
2022/05/08 03:40:55;;;;;;;10.20;8.40;;;;;;;19.29;48.09;99741.63;4125527;28;20241;-68
2022/05/08 03:42:56;;;;;;;9.40;8.40;;;;;;;19.09;48.20;99755.22;4126592;28;20635;-68
2022/05/08 03:44:58;;;;;;;9.43;8.43;;;;;;;19.17;48.08;99764.06;4126587;28;20257;-68
2022/05/08 03:47:00;;;;;;;10.83;8.73;;;;;;;18.78;48.99;99764.03;4130936;28;20233;-68
2022/05/08 03:49:02;;;;;;;9.67;8.57;;;;;;;18.51;49.59;99774.03;4133147;28;20226;-68
2022/05/08 03:51:03;;;;;;;12.17;8.83;;;;;;;18.48;49.97;99764.53;4132320;28;20237;-68
2022/05/08 03:53:05;;;;;;;10.63;8.93;;;;;;;18.59;49.63;99755.81;4134521;28;20408;-68
2022/05/08 03:55:07;;;;;;;10.73;8.43;;;;;;;18.03;50.61;99761.66;4130904;28;20237;-68
2022/05/08 03:57:09;;;;;;;9.50;8.53;;;;;;;18.34;50.27;99758.34;4134547;28;20830;-68
2022/05/08 03:59:10;;;;;;;12.47;8.90;;;;;;;18.64;49.30;99759.72;4134743;28;20237;-68
2022/05/08 04:01:12;;;;;;;12.60;9.63;;;;;;;19.13;48.01;99766.38;4133482;28;20314;-68
2022/05/08 04:03:14;;;;;;;10.90;9.30;;;;;;;17.91;50.93;99788.34;4137408;28;20241;-68
2022/05/08 04:05:16;;;;;;;10.30;8.77;;;;;;;18.74;49.42;99760.09;4126717;28;20241;-68
2022/05/08 04:07:18;;;;;;;10.13;9.13;;;;;;;19.12;48.61;99767.44;4137683;22;20230;-30
2022/05/08 04:09:19;;;;;;;12.17;8.67;;;;;;;18.65;49.83;99782.94;4139631;28;20272;-31
2022/05/08 04:11:21;;;;;;;9.67;8.67;;;;;;;18.19;50.29;99793.56;4149231;28;20817;-31
2022/05/08 04:13:23;;;;;;;10.20;8.73;;;;;;;18.73;49.56;99780.00;4145984;28;20240;-32
2022/05/08 04:17:45;;;;;;;10.70;8.53;;;;;;;17.90;51.43;99792.06;4123855;28;20658;-29
2022/05/08 04:19:47;;;;;;;11.70;9.27;;;;;;;18.72;49.22;99784.53;4136507;28;20229;-30
2022/05/08 04:21:49;;;;;;;11.17;9.67;;;;;;;17.90;51.36;99792.06;4130869;28;20240;-31
2022/05/08 04:26:11;;;;;;;10.70;9.70;;;;;;;18.84;49.63;99776.66;4132887;28;20237;-32
2022/05/08 04:28:13;;;;;;;10.00;9.00;;;;;;;18.98;49.22;99774.72;4135087;28;20241;-33
2022/05/08 04:30:14;;;;;;;11.77;8.90;;;;;;;18.85;49.41;99786.41;4134784;28;20237;-29
2022/05/08 04:32:16;;;;;;;10.10;9.07;;;;;;;18.44;49.99;99798.28;4130389;28;20238;-34
2022/05/08 04:34:18;;;;;;;12.03;9.60;;;;;;;18.51;50.41;99793.72;4137555;28;20662;-29
2022/05/08 04:36:20;;;;;;;11.47;10.23;;;;;;;17.85;52.14;99803.47;4128407;28;20245;-30
2022/05/08 04:38:22;;;;;;;12.70;10.33;;;;;;;18.30;50.92;99797.47;4131536;28;20217;-32
2022/05/08 04:40:24;;;;;;;14.00;9.30;;;;;;;18.76;49.99;99793.88;4128914;28;20209;-31
2022/05/08 04:42:26;;;;;;;10.90;9.80;;;;;;;18.81;49.60;99795.09;4126902;28;20214;-31
2022/05/08 04:44:28;;;;;;;10.70;9.70;;;;;;;18.82;49.82;99802.19;4129519;28;20293;-30
2022/05/08 04:46:31;;;;;;;12.63;10.07;;;;;;;19.30;48.62;99807.13;4124722;28;20245;-30
2022/05/08 04:48:33;;;;;;;12.80;10.07;;;;;;;19.19;49.19;99805.97;4132958;28;20820;-32
2022/05/08 04:50:35;;;;;;;11.80;10.47;;;;;;;18.45;50.67;99816.09;4130174;28;20260;-32
2022/05/08 04:52:36;;;;;;;11.70;10.30;;;;;;;18.83;50.42;99811.91;4127548;28;20233;-30
2022/05/08 04:54:38;;;;;;;13.10;10.00;;;;;;;18.46;50.75;99819.59;4124103;28;20241;-30
2022/05/08 04:56:40;;;;;;;12.33;10.47;;;;;;;18.88;50.04;99812.94;4128317;28;20253;-30
2022/05/08 04:58:42;;;;;;;12.13;10.27;;;;;;;18.58;50.68;99820.66;4130350;28;20707;-34
2022/05/08 05:00:44;;;;;;;12.47;10.77;;;;;;;18.71;50.01;99817.94;4131598;28;20239;-31
2022/05/08 05:02:46;;;;;;;10.90;9.73;;;;;;;19.17;49.49;99821.53;4127878;28;20249;-33
2022/05/08 05:04:48;;;;;;;11.03;9.83;;;;;;;18.58;50.63;99831.41;4124442;28;20245;-30
2022/05/08 05:06:49;;;;;;;12.50;10.07;;;;;;;17.99;52.02;99833.06;4125357;28;20617;-32
2022/05/08 05:08:51;;;;;;;12.43;10.40;;;;;;;18.97;50.72;99821.59;4129831;28;20241;-31
2022/05/08 05:10:53;;;;;;;13.20;10.17;;;;;;;19.24;49.58;99826.88;4133874;28;20242;-30
2022/05/08 05:12:55;;;;;;;11.47;10.03;;;;;;;18.78;50.47;99834.06;4132059;28;20242;-29
2022/05/08 05:14:59;;;;;;;12.20;10.67;;;;;;;19.24;49.61;99834.97;4138287;28;20466;-34
2022/05/08 05:17:01;;;;;;;12.67;11.47;;;;;;;18.65;51.37;99840.31;4129634;28;20246;-30
2022/05/08 05:19:04;;;;;;;13.43;10.33;;;;;;;18.81;50.81;99839.00;4134580;28;20725;-35
2022/05/08 05:21:06;;;;;;;12.13;10.70;;;;;;;18.67;51.13;99838.22;4132317;28;20238;-30
2022/05/08 05:23:08;;;;;;;11.47;10.27;;;;;;;19.00;50.20;99842.75;4129026;28;20230;-32
2022/05/08 05:25:10;;;;;;;13.93;10.93;;;;;;;18.82;50.83;99840.72;4137446;28;20236;-30
2022/05/08 05:27:11;;;;;;;13.00;10.40;;;;;;;18.35;51.42;99848.81;4129557;28;20887;-32
2022/05/08 05:29:14;;;;;;;12.33;10.60;;;;;;;19.05;50.29;99837.53;4129125;28;20246;-32
2022/05/08 05:31:16;;;;;;;12.67;11.00;;;;;;;18.67;51.20;99843.59;4130926;28;20308;-31
2022/05/08 05:33:19;;;;;;;11.50;10.13;;;;;;;18.46;51.48;99852.75;4128529;28;20823;-32
2022/05/08 05:35:21;;;;;;;13.43;10.70;;;;;;;19.11;50.52;99844.75;4125640;28;20230;-30
2022/05/08 05:37:22;;;;;;;12.13;10.87;;;;;;;18.33;51.85;99850.06;4130038;28;20233;-31
2022/05/08 05:39:24;;;;;;;11.77;10.50;;;;;;;18.23;51.63;99847.78;4128352;28;20237;-31
2022/05/08 05:41:26;;;;;;;13.53;11.13;;;;;;;17.88;53.30;99842.56;4128907;28;20367;-29
2022/05/08 05:43:27;;;;;;;11.87;10.73;;;;;;;17.82;53.59;99835.34;4127156;28;20237;-31
2022/05/08 05:45:29;;;;;;;14.33;11.20;;;;;;;18.62;51.56;99835.34;4129864;28;20316;-31
2022/05/08 05:47:49;;;;;;;14.80;10.77;;;;;;;18.39;52.43;99838.47;4127845;28;20246;-30
2022/05/08 05:49:51;;;;;;;12.33;10.30;;;;;;;18.26;52.43;99842.00;4129153;28;20293;-30
2022/05/08 05:51:54;;;;;;;14.03;9.90;;;;;;;18.33;53.05;99839.31;4129235;28;20614;-30
2022/05/08 05:53:55;;;;;;;14.80;11.17;;;;;;;18.50;52.40;99840.53;4125005;28;20225;-33
2022/05/08 05:55:58;;;;;;;11.73;10.53;;;;;;;18.24;53.10;99844.09;4126821;28;20325;-32
2022/05/08 05:58:00;;;;;;;11.40;10.20;;;;;;;18.40;52.68;99853.59;4125396;28;20234;-37
2022/05/08 06:00:04;;;;;;;13.00;11.63;;;;;;;19.06;52.06;99844.56;4135131;28;20229;-32
2022/05/08 06:02:06;;;;;;;13.20;10.33;;;;;;;18.70;52.52;99851.28;4127647;28;20241;-32
2022/05/08 06:04:08;;;;;;;10.73;9.63;;;;;;;18.80;52.31;99868.88;4124444;28;20281;-31
2022/05/08 06:06:09;;;;;;;11.20;9.57;;;;;;;18.71;53.39;99857.47;4129907;28;20794;-32
2022/05/08 06:08:11;;;;;;;13.37;10.43;;;;;;;18.86;52.40;99860.78;4128363;28;20706;-35
2022/05/08 06:10:14;;;;;;;11.97;9.90;;;;;;;19.05;52.08;99864.47;4133810;28;20241;-32
2022/05/08 06:12:16;;;;;;;11.00;9.90;;;;;;;19.13;52.36;99869.66;4134074;28;20257;-32
2022/05/08 06:14:18;;;;;;;13.47;10.97;;;;;;;18.89;52.59;99867.63;4126245;28;20634;-35
2022/05/08 06:16:20;;;;;;;11.70;9.73;;;;;;;18.57;53.87;99879.03;4115088;28;20308;-34
2022/05/08 06:18:22;;;;;;;12.23;9.93;;;;;;;18.88;52.78;99879.44;4109723;28;20202;-32
2022/05/08 06:20:23;;;;;;;11.57;9.63;;;;;;;18.93;52.81;99867.00;4116509;28;20214;-30
2022/05/08 06:22:25;;;;;;;11.37;9.63;;;;;;;19.06;52.25;99871.50;4113112;28;20264;-30
2022/05/08 06:24:27;;;;;;;12.73;10.77;;;;;;;19.06;52.71;99873.38;4115866;28;20253;-30
2022/05/08 06:26:29;;;;;;;12.17;9.97;;;;;;;19.23;52.08;99879.94;4111412;28;20285;-30
2022/05/08 06:28:31;;;;;;;11.37;10.07;;;;;;;19.79;51.75;99886.59;4113707;28;20237;-29
2022/05/08 06:30:33;;;;;;;10.20;9.20;;;;;;;19.24;52.46;99900.50;4117434;28;20307;-31
2022/05/08 06:32:35;;;;;;;14.57;10.47;;;;;;;19.51;51.81;99903.91;4117714;28;20288;-30
2022/05/08 06:34:57;;;;;;;11.87;9.30;;;;;;;19.50;51.80;99909.50;4121353;28;20707;-32
2022/05/08 06:36:59;;;;;;;13.27;10.20;;;;;;;19.88;51.92;99904.16;4119148;28;20278;-29
2022/05/08 06:39:01;;;;;;;12.27;8.90;;;;;;;19.80;51.60;99909.81;4119318;28;20552;-33
2022/05/08 06:41:02;;;;;;;11.70;10.17;;;;;;;19.66;51.99;99905.53;4118883;28;20280;-32
2022/05/08 06:43:04;;;;;;;13.63;10.30;;;;;;;19.63;51.33;99922.97;4116565;28;20289;-35
2022/05/08 06:45:07;;;;;;;12.03;9.50;;;;;;;19.69;51.87;99915.91;4117517;28;20234;-29
2022/05/08 06:47:08;;;;;;;10.60;9.33;;;;;;;19.50;52.69;99923.84;4114188;28;20666;-32
2022/05/08 06:49:10;;;;;;;11.47;10.27;;;;;;;19.55;52.20;99925.09;4126340;28;20238;-30
2022/05/08 06:51:12;;;;;;;10.57;9.47;;;;;;;19.57;51.84;99931.09;4125508;28;21038;-30
2022/05/08 06:53:14;;;;;;;11.13;8.53;;;;;;;20.32;50.72;99925.09;4132605;28;20237;-30
2022/05/08 06:55:15;;;;;;;12.20;9.00;;;;;;;20.35;50.84;99940.84;4124181;28;20289;-30
2022/05/08 06:57:17;;;;;;;11.30;9.20;;;;;;;20.62;50.12;99939.59;4127613;28;20335;-30
2022/05/08 07:01:43;;;;;;;11.17;8.63;;;;;;;20.48;50.61;99943.44;4130586;28;20786;-30
2022/05/08 07:03:45;;;;;;;11.00;8.40;;;;;;;20.27;51.36;99943.81;4128159;28;20715;-32
2022/05/08 07:05:47;;;;;;;9.50;7.53;;;;;;;20.60;49.90;99947.09;4126721;28;20813;-33
2022/05/08 07:07:49;;;;;;;9.07;7.83;;;;;;;20.34;51.78;99950.81;4127637;28;20237;-29
2022/05/08 07:09:51;;;;;;;9.00;8.10;;;;;;;20.48;50.43;99951.53;4132726;28;20655;-32
2022/05/08 07:11:53;;;;;;;8.07;6.57;;;;;;;20.80;49.79;99951.47;4126721;28;20674;-30
2022/05/08 07:14:01;;;;;;;8.03;7.03;;;;;;;20.86;49.01;99950.59;4125479;28;20233;-30
2022/05/08 07:16:03;;;;;;;9.03;7.33;;;;;;;19.76;51.00;99959.84;4128700;28;20230;-30
2022/05/08 07:18:05;;;;;;;7.93;7.13;;;;;;;20.30;50.62;99949.59;4126786;28;20327;-31
2022/05/08 07:20:08;;;;;;;8.17;6.97;;;;;;;21.21;49.43;99954.66;4128004;28;20230;-31
2022/05/08 07:22:10;;;;;;;8.17;7.33;;;;;;;20.69;49.64;99963.03;4133400;28;20230;-31
2022/05/08 07:24:12;;;;;;;7.37;6.03;;;;;;;20.92;49.17;99963.22;4127255;28;20288;-30
2022/05/08 07:26:14;;;;;;;8.93;5.70;;;;;;;20.76;48.26;99961.09;4129119;28;20240;-32
2022/05/08 07:28:16;;;;;;;7.33;6.33;;;;;;;21.14;49.46;99971.78;4127229;28;20241;-32
2022/05/08 07:30:18;;;;;;;8.47;6.67;;;;;;;20.80;48.41;99976.66;4125088;28;20284;-30
2022/05/08 07:32:20;;;;;;;9.20;6.30;;;;;;;20.87;48.19;99973.88;4121583;28;20225;-30
2022/05/08 07:36:42;;;;;;;6.77;5.47;;;;;;;21.56;47.92;99973.81;4128663;28;20261;-33
2022/05/08 07:38:47;;;;;;;8.80;5.77;;;;;;;21.00;47.66;99981.06;4132131;28;20732;-31
2022/05/08 07:40:50;;;;;;;7.60;5.00;;;;;;;20.85;49.09;99977.84;4129127;28;20301;-32
2022/05/08 07:42:52;;;;;;;6.17;5.47;;;;;;;21.20;48.10;99975.47;4128168;28;20237;-30
2022/05/08 07:44:54;;;;;;;7.30;5.33;;;;;;;20.86;48.89;99976.81;4124762;28;20275;-31
2022/05/08 07:46:55;;;;;;;6.57;5.30;;;;;;;20.65;48.16;99980.72;4124499;28;20297;-30
2022/05/08 07:48:57;;;;;;;6.80;5.40;;;;;;;20.95;47.88;99991.72;4133034;28;20264;-29
2022/05/08 07:51:00;;;;;;;6.20;5.40;;;;;;;21.02;47.53;99989.75;4124902;28;20233;-31
2022/05/08 07:53:02;;;;;;;7.80;5.43;;;;;;;21.03;48.43;99985.22;4129538;28;20229;-31
2022/05/08 07:55:04;;;;;;;8.03;5.40;;;;;;;20.84;48.90;99985.13;4125557;28;20297;-30
2022/05/08 07:57:06;;;;;;;7.30;6.00;;;;;;;21.37;47.98;99989.22;4129051;28;20724;-30
2022/05/08 07:59:08;;;;;;;7.13;6.00;;;;;;;21.95;46.95;99990.66;4126726;28;20234;-30
2022/05/08 08:01:10;;;;;;;6.33;5.73;;;;;;;21.79;47.47;99991.28;4136163;28;20283;-31
2022/05/08 08:03:12;;;;;;;7.63;5.93;;;;;;;20.95;49.10;99984.41;4131073;28;20238;-30
2022/05/08 08:05:14;;;;;;;8.13;5.40;;;;;;;21.21;47.57;99987.09;4133359;28;20715;-31
2022/05/08 08:07:16;;;;;;;6.53;5.27;;;;;;;21.49;47.77;99987.41;4130824;28;20609;-33
2022/05/08 08:09:18;;;;;;;8.47;5.70;;;;;;;21.48;47.32;99988.47;4128810;28;20679;-30
2022/05/08 08:11:20;;;;;;;7.77;5.33;;;;;;;21.94;47.49;99988.16;4129700;28;20238;-31
2022/05/08 08:13:24;;;;;;;8.03;6.13;;;;;;;21.66;48.22;99982.28;4119712;28;20292;-31
2022/05/08 08:15:25;;;;;;;9.50;5.70;;;;;;;21.65;47.49;99986.03;4127848;28;20295;-30
2022/05/08 08:17:28;;;;;;;6.87;5.87;;;;;;;21.50;48.65;99985.53;4126517;28;20237;-34
2022/05/08 08:19:30;;;;;;;6.13;5.53;;;;;;;22.48;46.70;99978.25;4127713;28;20229;-31
2022/05/08 08:21:33;;;;;;;7.77;6.27;;;;;;;21.77;47.87;99991.50;4128465;28;20234;-31
2022/05/08 08:23:34;;;;;;;8.73;6.43;;;;;;;22.11;47.56;99994.59;4122216;28;20226;-31
2022/05/08 08:25:37;;;;;;;8.83;6.40;;;;;;;21.81;47.72;100002.69;4128584;28;20313;-30
2022/05/08 08:27:38;;;;;;;8.13;6.20;;;;;;;22.33;47.95;99992.22;4125551;28;20241;-29
2022/05/08 08:29:40;;;;;;;7.27;6.27;;;;;;;22.43;47.02;99994.38;4125295;28;20231;-31
2022/05/08 08:31:42;;;;;;;9.80;6.40;;;;;;;22.63;46.34;99991.34;4123996;28;20281;-35
2022/05/08 08:33:45;;;;;;;7.57;5.87;;;;;;;22.68;46.97;99991.47;4128376;28;20261;-32
2022/05/08 08:35:46;;;;;;;6.47;5.83;;;;;;;22.00;46.44;99996.19;4129719;28;20292;-32
2022/05/08 08:37:48;;;;;;;7.93;5.83;;;;;;;22.08;46.12;99998.59;4125132;28;20277;-31
2022/05/08 08:39:50;;;;;;;8.93;5.87;;;;;;;21.54;47.63;99997.56;4130998;28;20244;-32
2022/05/08 08:42:13;;;;;;;7.43;5.63;;;;;;;21.81;46.71;100000.78;4137628;28;20233;-31
2022/05/08 08:49:01;;;;;;;7.90;6.20;;;;;;;22.48;46.26;99986.38;4126840;28;20742;-30
2022/05/08 08:51:03;;;;;;;8.43;6.17;;;;;;;22.25;46.55;99987.94;4133517;28;20292;-32
2022/05/08 08:53:06;;;;;;;8.87;6.50;;;;;;;22.70;45.89;99988.53;4127423;28;20857;-30
2022/05/08 08:55:08;;;;;;;9.43;6.05;;;;;;;23.45;45.60;99990.56;4134509;28;20718;-32
2022/05/08 08:57:10;;;;;;;9.13;6.20;;;;;;;23.10;45.75;99994.13;4130866;28;20249;-33
2022/05/08 08:59:12;;;;;;;7.10;6.40;;;;;;;22.43;46.33;99992.47;4123239;28;20284;-33
2022/05/08 09:01:15;;;;;;;7.00;6.30;;;;;;;23.70;45.58;99992.97;4135084;28;20242;-30
2022/05/08 09:03:25;;;;;;;9.00;6.60;;;;;;;23.39;45.16;100000.44;4129741;28;20241;-31
2022/05/08 09:05:28;;;;;;;7.83;6.10;;;;;;;23.42;44.43;99998.31;4134084;28;20264;-31
2022/05/08 09:07:45;;;;;;;9.23;7.17;;;;;;;23.57;45.28;99998.69;4125596;28;20640;-33
2022/05/08 09:09:47;;;;;;;9.90;6.33;;;;;;;22.73;46.22;100001.63;4131039;28;20287;-30
2022/05/08 09:11:49;;;;;;;10.40;6.07;;;;;;;23.47;45.25;99998.44;4129979;28;20704;-30
2022/05/08 09:13:51;;;;;;;7.67;5.97;;;;;;;23.25;45.47;100000.94;4132284;28;20246;-31
2022/05/08 09:16:07;;;;;;;7.23;6.00;;;;;;;23.28;45.16;100000.47;4128761;28;20273;-31
2022/05/08 09:18:11;;;;;;;7.70;5.50;;;;;;;23.15;45.64;99993.41;4127984;28;20225;-30
2022/05/08 09:20:41;;;;;;;6.70;5.88;;;;;;;22.97;44.02;100002.50;4129012;28;20276;-34
2022/05/08 09:23:09;;;;;;;7.90;6.47;;;;;;;23.34;44.52;99997.63;4129891;28;20233;-34
2022/05/08 09:25:11;;;;;;;7.60;6.00;;;;;;;23.34;44.59;99994.09;4129396;28;20743;-33
2022/05/08 09:27:15;;;;;;;8.10;5.72;;;;;;;24.16;45.32;99990.34;4126535;28;20246;-32
2022/05/08 09:29:21;;;;;;;7.20;5.95;;;;;;;23.94;45.18;99993.75;4135424;28;20316;-34
2022/05/08 09:31:23;;;;;;;7.68;6.25;;;;;;;24.06;45.87;99984.72;4128896;28;20238;-32
2022/05/08 09:33:36;;;;;;;7.25;5.80;;;;;;;23.80;44.99;99989.66;4136770;28;20730;-31
2022/05/08 09:35:44;;;;;;;11.57;6.40;;;;;;;23.06;46.05;99981.25;4131721;28;20636;-32
2022/05/08 09:37:54;;;;;;;8.23;6.78;;;;;;;23.17;45.33;99983.16;4125602;28;20233;-31
2022/05/08 09:40:17;;;;;;;8.10;6.22;;;;;;;24.06;43.66;99973.88;4128875;28;20645;-31
2022/05/08 09:42:38;;;;;;;7.78;5.65;;;;;;;24.23;43.48;99980.19;4114816;28;20750;-30
2022/05/08 09:45:07;;;;;;;7.78;6.22;;;;;;;24.26;42.97;99974.25;4117703;28;20292;-31
2022/05/08 09:47:09;;;;;;;8.25;6.30;;;;;;;23.99;43.97;99975.88;4131770;28;20241;-32
2022/05/08 09:49:19;;;;;;;6.78;6.00;;;;;;;24.06;43.69;99976.59;4129505;28;20260;-30
2022/05/08 09:51:24;;;;;;;7.78;5.63;;;;;;;24.68;43.40;99973.88;4120797;28;20237;-31
2022/05/08 09:53:27;;;;;;;9.18;5.75;;;;;;;24.00;44.18;99980.25;4129288;28;20233;-30
2022/05/08 09:55:29;;;;;;;7.85;5.68;;;;;;;24.07;43.66;99975.50;4129317;28;20229;-31